Fairmount, Georgia
Current Conditions -  °F | °C
As of 7:35 PM on Tuesday 21 Oct 2014 (Local Time) from KCNI Reporting Station
Clear Clear  
Wind Chill: 59°   Ceiling: Unl
Heat Index: 59°   Visibility: 10mi
Dew Point: 45°   Wind: 3mph
Humidity: 59%   Direction: 300°WNW
Pressure: 30"   Gusts: NA
Location:  34.44°N, 84.7°W
Report Text: KCNI 212335Z AUTO 30003KT 10SM CLR 15/07 A3000 RMK AO2
Loading
Personal Weather Stations






























Interactive Weather Map
Tropical Storm Tracking
New forecast layout! Learn more

10-Day Weather Forecast

Advertisements
Track Severe Weather on mobile